sensor_id;sensor_type;location;lat;lon;timestamp;temperature;humidity
70676;DHT22;59069;52.242;20.900;2024-01-15T00:00:41;1.72;87.80
70676;DHT22;59069;52.242;20.900;2024-01-15T00:03:06;1.73;87.69
70676;DHT22;59069;52.242;20.900;2024-01-15T00:05:32;1.73;87.71
70676;DHT22;59069;52.242;20.900;2024-01-15T00:07:57;1.71;87.68
70676;DHT22;59069;52.242;20.900;2024-01-15T00:10:23;1.72;87.73
70676;DHT22;59069;52.242;20.900;2024-01-15T00:12:49;1.75;87.68
70676;DHT22;59069;52.242;20.900;2024-01-15T00:15:14;1.73;87.52
70676;DHT22;59069;52.242;20.900;2024-01-15T00:17:40;1.71;87.44
70676;DHT22;59069;52.242;20.900;2024-01-15T00:20:06;1.69;87.54
70676;DHT22;59069;52.242;20.900;2024-01-15T00:22:32;1.66;87.61
70676;DHT22;59069;52.242;20.900;2024-01-15T00:24:58;1.68;87.68
70676;DHT22;59069;52.242;20.900;2024-01-15T00:27:23;1.65;87.73
70676;DHT22;59069;52.242;20.900;2024-01-15T00:29:49;1.65;87.78
70676;DHT22;59069;52.242;20.900;2024-01-15T00:32:16;1.65;87.73
70676;DHT22;59069;52.242;20.900;2024-01-15T00:34:42;1.68;87.73
70676;DHT22;59069;52.242;20.900;2024-01-15T00:37:07;1.68;87.58
70676;DHT22;59069;52.242;20.900;2024-01-15T00:39:33;1.69;87.52
70676;DHT22;59069;52.242;20.900;2024-01-15T00:41:58;1.69;87.43
70676;DHT22;59069;52.242;20.900;2024-01-15T00:44:24;1.71;87.39
70676;DHT22;59069;52.242;20.900;2024-01-15T00:46:49;1.68;87.38
70676;DHT22;59069;52.242;20.900;2024-01-15T00:49:15;1.68;87.33
70676;DHT22;59069;52.242;20.900;2024-01-15T00:51:41;1.68;87.37
70676;DHT22;59069;52.242;20.900;2024-01-15T00:54:07;1.66;87.46
70676;DHT22;59069;52.242;20.900;2024-01-15T00:56:32;1.63;87.56
70676;DHT22;59069;52.242;20.900;2024-01-15T00:58:58;1.62;87.66
70676;DHT22;59069;52.242;20.900;2024-01-15T01:01:23;1.59;87.75
70676;DHT22;59069;52.242;20.900;2024-01-15T01:03:49;1.59;87.91
70676;DHT22;59069;52.242;20.900;2024-01-15T01:06:14;1.55;88.03
70676;DHT22;59069;52.242;20.900;2024-01-15T01:08:40;1.55;88.24
70676;DHT22;59069;52.242;20.900;2024-01-15T01:11:05;1.54;88.31
70676;DHT22;59069;52.242;20.900;2024-01-15T01:13:32;1.51;88.45
70676;DHT22;59069;52.242;20.900;2024-01-15T01:15:57;1.48;88.62
70676;DHT22;59069;52.242;20.900;2024-01-15T01:18:23;1.47;88.74
70676;DHT22;59069;52.242;20.900;2024-01-15T01:20:48;1.44;88.85
70676;DHT22;59069;52.242;20.900;2024-01-15T01:23:14;1.45;88.99
70676;DHT22;59069;52.242;20.900;2024-01-15T01:25:39;1.42;89.07
70676;DHT22;59069;52.242;20.900;2024-01-15T01:28:05;1.48;89.16
70676;DHT22;59069;52.242;20.900;2024-01-15T01:30:30;1.44;89.19
70676;DHT22;59069;52.242;20.900;2024-01-15T01:32:56;1.45;89.20
70676;DHT22;59069;52.242;20.900;2024-01-15T01:35:22;1.45;89.23
70676;DHT22;59069;52.242;20.900;2024-01-15T01:37:47;1.44;89.30
70676;DHT22;59069;52.242;20.900;2024-01-15T01:40:13;1.45;89.27
70676;DHT22;59069;52.242;20.900;2024-01-15T01:42:38;1.45;89.30
70676;DHT22;59069;52.242;20.900;2024-01-15T01:45:04;1.47;89.23
70676;DHT22;59069;52.242;20.900;2024-01-15T01:47:30;1.48;89.25
70676;DHT22;59069;52.242;20.900;2024-01-15T01:49:55;1.48;89.14
70676;DHT22;59069;52.242;20.900;2024-01-15T01:52:21;1.49;89.11
70676;DHT22;59069;52.242;20.900;2024-01-15T01:54:47;1.52;89.10
70676;DHT22;59069;52.242;20.900;2024-01-15T01:57:13;1.49;89.05
70676;DHT22;59069;52.242;20.900;2024-01-15T01:59:40;1.49;89.04
70676;DHT22;59069;52.242;20.900;2024-01-15T02:02:06;1.49;89.00
70676;DHT22;59069;52.242;20.900;2024-01-15T02:04:32;1.51;89.01
70676;DHT22;59069;52.242;20.900;2024-01-15T02:06:59;1.49;88.97
70676;DHT22;59069;52.242;20.900;2024-01-15T02:09:25;1.48;88.90
70676;DHT22;59069;52.242;20.900;2024-01-15T02:11:51;1.54;88.86
70676;DHT22;59069;52.242;20.900;2024-01-15T02:14:16;1.51;88.77
70676;DHT22;59069;52.242;20.900;2024-01-15T02:16:42;1.54;88.66
70676;DHT22;59069;52.242;20.900;2024-01-15T02:19:07;1.56;88.56
70676;DHT22;59069;52.242;20.900;2024-01-15T02:21:33;1.55;88.47
70676;DHT22;59069;52.242;20.900;2024-01-15T02:23:58;1.55;88.43
70676;DHT22;59069;52.242;20.900;2024-01-15T02:26:24;1.56;88.42
70676;DHT22;59069;52.242;20.900;2024-01-15T02:28:50;1.56;88.30
70676;DHT22;59069;52.242;20.900;2024-01-15T02:31:16;1.58;88.20
70676;DHT22;59069;52.242;20.900;2024-01-15T02:33:42;1.59;88.07
70676;DHT22;59069;52.242;20.900;2024-01-15T02:36:08;1.56;88.03
70676;DHT22;59069;52.242;20.900;2024-01-15T02:38:33;1.58;87.98
70676;DHT22;59069;52.242;20.900;2024-01-15T02:40:59;1.56;87.88
70676;DHT22;59069;52.242;20.900;2024-01-15T02:43:24;1.56;87.85
70676;DHT22;59069;52.242;20.900;2024-01-15T02:45:50;1.55;87.77
70676;DHT22;59069;52.242;20.900;2024-01-15T02:48:15;1.56;87.76
70676;DHT22;59069;52.242;20.900;2024-01-15T02:50:41;1.56;87.77
70676;DHT22;59069;52.242;20.900;2024-01-15T02:53:06;1.55;87.71
70676;DHT22;59069;52.242;20.900;2024-01-15T02:55:31;1.55;87.63
70676;DHT22;59069;52.242;20.900;2024-01-15T02:57:57;1.55;87.59
70676;DHT22;59069;52.242;20.900;2024-01-15T03:00:23;1.52;87.60
70676;DHT22;59069;52.242;20.900;2024-01-15T03:02:50;1.51;87.60
70676;DHT22;59069;52.242;20.900;2024-01-15T03:05:16;1.51;87.65
70676;DHT22;59069;52.242;20.900;2024-01-15T03:07:42;1.48;87.67
70676;DHT22;59069;52.242;20.900;2024-01-15T03:10:07;1.47;87.72
70676;DHT22;59069;52.242;20.900;2024-01-15T03:12:33;1.45;87.77
70676;DHT22;59069;52.242;20.900;2024-01-15T03:14:59;1.45;87.89
70676;DHT22;59069;52.242;20.900;2024-01-15T03:17:24;1.42;87.94
70676;DHT22;59069;52.242;20.900;2024-01-15T03:19:50;1.41;88.02
70676;DHT22;59069;52.242;20.900;2024-01-15T03:22:16;1.40;88.22
70676;DHT22;59069;52.242;20.900;2024-01-15T03:24:42;1.38;88.38
70676;DHT22;59069;52.242;20.900;2024-01-15T03:27:07;1.35;88.63
70676;DHT22;59069;52.242;20.900;2024-01-15T03:29:33;1.32;88.69
70676;DHT22;59069;52.242;20.900;2024-01-15T03:31:58;1.31;88.84
70676;DHT22;59069;52.242;20.900;2024-01-15T03:34:23;1.31;88.94
70676;DHT22;59069;52.242;20.900;2024-01-15T03:36:49;1.28;89.03
70676;DHT22;59069;52.242;20.900;2024-01-15T03:39:14;1.28;89.11
70676;DHT22;59069;52.242;20.900;2024-01-15T03:41:40;1.27;89.06
70676;DHT22;59069;52.242;20.900;2024-01-15T03:44:05;1.28;89.07
70676;DHT22;59069;52.242;20.900;2024-01-15T03:46:32;1.28;89.08
70676;DHT22;59069;52.242;20.900;2024-01-15T03:48:57;1.28;89.00
70676;DHT22;59069;52.242;20.900;2024-01-15T03:51:23;1.28;88.97
70676;DHT22;59069;52.242;20.900;2024-01-15T03:53:48;1.32;88.89
70676;DHT22;59069;52.242;20.900;2024-01-15T03:56:14;1.34;88.81
70676;DHT22;59069;52.242;20.900;2024-01-15T03:58:39;1.35;88.76
70676;DHT22;59069;52.242;20.900;2024-01-15T04:01:09;1.34;88.61
70676;DHT22;59069;52.242;20.900;2024-01-15T04:03:35;1.32;88.58
70676;DHT22;59069;52.242;20.900;2024-01-15T04:06:00;1.31;88.50
70676;DHT22;59069;52.242;20.900;2024-01-15T04:08:25;1.30;88.51
70676;DHT22;59069;52.242;20.900;2024-01-15T04:10:51;1.30;88.41
70676;DHT22;59069;52.242;20.900;2024-01-15T04:13:16;1.32;88.41
70676;DHT22;59069;52.242;20.900;2024-01-15T04:15:42;1.32;88.27
70676;DHT22;59069;52.242;20.900;2024-01-15T04:18:07;1.30;88.19
70676;DHT22;59069;52.242;20.900;2024-01-15T04:20:33;1.30;88.15
70676;DHT22;59069;52.242;20.900;2024-01-15T04:22:58;1.34;88.11
70676;DHT22;59069;52.242;20.900;2024-01-15T04:25:23;1.34;87.97
70676;DHT22;59069;52.242;20.900;2024-01-15T04:27:49;1.37;87.88
70676;DHT22;59069;52.242;20.900;2024-01-15T04:30:14;1.34;87.81
70676;DHT22;59069;52.242;20.900;2024-01-15T04:32:40;1.38;87.72
70676;DHT22;59069;52.242;20.900;2024-01-15T04:35:05;1.38;87.54
70676;DHT22;59069;52.242;20.900;2024-01-15T04:37:31;1.37;87.45
70676;DHT22;59069;52.242;20.900;2024-01-15T04:39:56;1.38;87.43
70676;DHT22;59069;52.242;20.900;2024-01-15T04:42:22;1.38;87.30
70676;DHT22;59069;52.242;20.900;2024-01-15T04:44:48;1.38;87.25
70676;DHT22;59069;52.242;20.900;2024-01-15T04:47:14;1.38;87.17
70676;DHT22;59069;52.242;20.900;2024-01-15T04:49:39;1.42;87.07
70676;DHT22;59069;52.242;20.900;2024-01-15T04:52:05;1.44;87.01
70676;DHT22;59069;52.242;20.900;2024-01-15T04:54:30;1.45;86.91
70676;DHT22;59069;52.242;20.900;2024-01-15T04:56:55;1.48;86.79
70676;DHT22;59069;52.242;20.900;2024-01-15T04:59:21;1.48;86.66
70676;DHT22;59069;52.242;20.900;2024-01-15T05:01:46;1.52;86.54
70676;DHT22;59069;52.242;20.900;2024-01-15T05:04:14;1.48;86.49
70676;DHT22;59069;52.242;20.900;2024-01-15T05:06:39;1.48;86.44
70676;DHT22;59069;52.242;20.900;2024-01-15T05:09:05;1.54;86.33
70676;DHT22;59069;52.242;20.900;2024-01-15T05:11:30;1.49;86.27
70676;DHT22;59069;52.242;20.900;2024-01-15T05:13:55;1.49;86.23
70676;DHT22;59069;52.242;20.900;2024-01-15T05:16:21;1.49;86.18
70676;DHT22;59069;52.242;20.900;2024-01-15T05:18:46;1.52;86.08
70676;DHT22;59069;52.242;20.900;2024-01-15T05:21:12;1.48;86.05
70676;DHT22;59069;52.242;20.900;2024-01-15T05:23:37;1.52;85.96
70676;DHT22;59069;52.242;20.900;2024-01-15T05:26:03;1.47;85.96
70676;DHT22;59069;52.242;20.900;2024-01-15T05:28:29;1.49;85.93
70676;DHT22;59069;52.242;20.900;2024-01-15T05:30:54;1.51;85.95
70676;DHT22;59069;52.242;20.900;2024-01-15T05:33:23;1.52;85.86
70676;DHT22;59069;52.242;20.900;2024-01-15T05:35:49;1.52;85.86
70676;DHT22;59069;52.242;20.900;2024-01-15T05:38:16;1.52;85.83
70676;DHT22;59069;52.242;20.900;2024-01-15T05:40:41;1.52;85.78
70676;DHT22;59069;52.242;20.900;2024-01-15T05:43:07;1.51;85.77
70676;DHT22;59069;52.242;20.900;2024-01-15T05:45:34;1.51;85.69
70676;DHT22;59069;52.242;20.900;2024-01-15T05:48:00;1.51;85.64
70676;DHT22;59069;52.242;20.900;2024-01-15T05:50:25;1.51;85.63
70676;DHT22;59069;52.242;20.900;2024-01-15T05:52:51;1.51;85.61
70676;DHT22;59069;52.242;20.900;2024-01-15T05:55:17;1.49;85.61
70676;DHT22;59069;52.242;20.900;2024-01-15T05:57:44;1.49;85.65
70676;DHT22;59069;52.242;20.900;2024-01-15T06:00:10;1.47;85.70
70676;DHT22;59069;52.242;20.900;2024-01-15T06:02:37;1.47;85.78
70676;DHT22;59069;52.242;20.900;2024-01-15T06:05:03;1.45;85.86
70676;DHT22;59069;52.242;20.900;2024-01-15T06:07:28;1.47;85.89
70676;DHT22;59069;52.242;20.900;2024-01-15T06:09:54;1.47;85.88
70676;DHT22;59069;52.242;20.900;2024-01-15T06:12:22;1.45;85.82
70676;DHT22;59069;52.242;20.900;2024-01-15T06:14:48;1.45;85.71
70676;DHT22;59069;52.242;20.900;2024-01-15T06:17:13;1.45;85.75
70676;DHT22;59069;52.242;20.900;2024-01-15T06:19:38;1.45;85.71
70676;DHT22;59069;52.242;20.900;2024-01-15T06:22:04;1.45;85.76
70676;DHT22;59069;52.242;20.900;2024-01-15T06:24:30;1.47;85.72
70676;DHT22;59069;52.242;20.900;2024-01-15T06:26:55;1.45;85.73
70676;DHT22;59069;52.242;20.900;2024-01-15T06:29:21;1.45;85.73
70676;DHT22;59069;52.242;20.900;2024-01-15T06:31:46;1.44;85.71
70676;DHT22;59069;52.242;20.900;2024-01-15T06:34:12;1.42;85.74
70676;DHT22;59069;52.242;20.900;2024-01-15T06:36:37;1.42;85.74
70676;DHT22;59069;52.242;20.900;2024-01-15T06:39:03;1.42;85.85
70676;DHT22;59069;52.242;20.900;2024-01-15T06:41:28;1.40;85.90
70676;DHT22;59069;52.242;20.900;2024-01-15T06:43:53;1.40;85.91
70676;DHT22;59069;52.242;20.900;2024-01-15T06:46:22;1.41;85.97
70676;DHT22;59069;52.242;20.900;2024-01-15T06:48:48;1.41;85.92
70676;DHT22;59069;52.242;20.900;2024-01-15T06:51:15;1.42;85.82
70676;DHT22;59069;52.242;20.900;2024-01-15T06:53:40;1.42;85.72
70676;DHT22;59069;52.242;20.900;2024-01-15T06:56:06;1.48;85.55
70676;DHT22;59069;52.242;20.900;2024-01-15T06:58:31;1.45;85.43
70676;DHT22;59069;52.242;20.900;2024-01-15T07:00:57;1.49;85.34
70676;DHT22;59069;52.242;20.900;2024-01-15T07:03:23;1.48;85.28
70676;DHT22;59069;52.242;20.900;2024-01-15T07:05:48;1.49;85.20
70676;DHT22;59069;52.242;20.900;2024-01-15T07:08:14;1.48;85.16
70676;DHT22;59069;52.242;20.900;2024-01-15T07:10:39;1.48;85.11
70676;DHT22;59069;52.242;20.900;2024-01-15T07:13:05;1.48;85.16
70676;DHT22;59069;52.242;20.900;2024-01-15T07:15:33;1.49;85.12
70676;DHT22;59069;52.242;20.900;2024-01-15T07:17:58;1.49;85.15
70676;DHT22;59069;52.242;20.900;2024-01-15T07:20:24;1.45;85.35
70676;DHT22;59069;52.242;20.900;2024-01-15T07:22:49;1.45;85.54
70676;DHT22;59069;52.242;20.900;2024-01-15T07:25:15;1.42;85.61
70676;DHT22;59069;52.242;20.900;2024-01-15T07:27:41;1.41;85.73
70676;DHT22;59069;52.242;20.900;2024-01-15T07:30:13;1.41;85.86
70676;DHT22;59069;52.242;20.900;2024-01-15T07:32:38;1.35;86.04
70676;DHT22;59069;52.242;20.900;2024-01-15T07:35:04;1.32;86.22
70676;DHT22;59069;52.242;20.900;2024-01-15T07:37:31;1.32;86.33
70676;DHT22;59069;52.242;20.900;2024-01-15T07:39:56;1.32;86.48
70676;DHT22;59069;52.242;20.900;2024-01-15T07:42:21;1.32;86.58
70676;DHT22;59069;52.242;20.900;2024-01-15T07:44:47;1.32;86.60
70676;DHT22;59069;52.242;20.900;2024-01-15T07:47:12;1.34;86.59
70676;DHT22;59069;52.242;20.900;2024-01-15T07:49:38;1.35;86.60
70676;DHT22;59069;52.242;20.900;2024-01-15T07:52:04;1.38;86.66
70676;DHT22;59069;52.242;20.900;2024-01-15T07:54:31;1.41;86.52
70676;DHT22;59069;52.242;20.900;2024-01-15T07:57:00;1.41;86.33
70676;DHT22;59069;52.242;20.900;2024-01-15T07:59:26;1.40;86.51
70676;DHT22;59069;52.242;20.900;2024-01-15T08:01:53;1.37;86.71
70676;DHT22;59069;52.242;20.900;2024-01-15T08:04:19;1.37;86.94
70676;DHT22;59069;52.242;20.900;2024-01-15T08:06:45;1.34;87.01
70676;DHT22;59069;52.242;20.900;2024-01-15T08:09:11;1.32;87.47
70676;DHT22;59069;52.242;20.900;2024-01-15T08:11:39;1.30;87.67
70676;DHT22;59069;52.242;20.900;2024-01-15T08:14:04;1.28;87.83
70676;DHT22;59069;52.242;20.900;2024-01-15T08:16:30;1.30;88.01
70676;DHT22;59069;52.242;20.900;2024-01-15T08:18:55;1.31;88.08
70676;DHT22;59069;52.242;20.900;2024-01-15T08:21:21;1.38;88.22
70676;DHT22;59069;52.242;20.900;2024-01-15T08:23:47;1.45;88.11
70676;DHT22;59069;52.242;20.900;2024-01-15T08:26:13;1.54;87.92
70676;DHT22;59069;52.242;20.900;2024-01-15T08:28:38;1.55;87.39
70676;DHT22;59069;52.242;20.900;2024-01-15T08:31:03;1.61;87.14
70676;DHT22;59069;52.242;20.900;2024-01-15T08:33:29;1.71;86.72
70676;DHT22;59069;52.242;20.900;2024-01-15T08:35:55;1.80;86.62
70676;DHT22;59069;52.242;20.900;2024-01-15T08:38:20;1.86;86.03
70676;DHT22;59069;52.242;20.900;2024-01-15T08:40:46;1.83;84.80
70676;DHT22;59069;52.242;20.900;2024-01-15T08:43:12;1.80;84.23
70676;DHT22;59069;52.242;20.900;2024-01-15T08:45:38;1.75;83.95
70676;DHT22;59069;52.242;20.900;2024-01-15T08:48:03;1.66;84.05
70676;DHT22;59069;52.242;20.900;2024-01-15T08:50:29;1.63;84.51
70676;DHT22;59069;52.242;20.900;2024-01-15T08:52:55;1.65;84.85
70676;DHT22;59069;52.242;20.900;2024-01-15T08:55:21;1.66;85.44
70676;DHT22;59069;52.242;20.900;2024-01-15T08:57:48;1.72;85.74
70676;DHT22;59069;52.242;20.900;2024-01-15T09:00:14;1.75;85.98
70676;DHT22;59069;52.242;20.900;2024-01-15T09:02:39;1.76;85.76
70676;DHT22;59069;52.242;20.900;2024-01-15T09:05:05;1.78;85.64
70676;DHT22;59069;52.242;20.900;2024-01-15T09:07:32;1.86;85.93
70676;DHT22;59069;52.242;20.900;2024-01-15T09:09:57;1.98;86.11
70676;DHT22;59069;52.242;20.900;2024-01-15T09:12:25;2.10;86.00
70676;DHT22;59069;52.242;20.900;2024-01-15T09:14:50;2.27;85.76
70676;DHT22;59069;52.242;20.900;2024-01-15T09:17:17;2.48;87.80
70676;DHT22;59069;52.242;20.900;2024-01-15T09:19:42;2.62;85.07
70676;DHT22;59069;52.242;20.900;2024-01-15T09:22:08;2.66;83.56
70676;DHT22;59069;52.242;20.900;2024-01-15T09:24:33;2.80;84.42
70676;DHT22;59069;52.242;20.900;2024-01-15T09:26:59;2.77;82.35
70676;DHT22;59069;52.242;20.900;2024-01-15T09:29:25;2.64;80.34
70676;DHT22;59069;52.242;20.900;2024-01-15T09:31:51;2.50;79.87
70676;DHT22;59069;52.242;20.900;2024-01-15T09:34:17;2.41;80.19
70676;DHT22;59069;52.242;20.900;2024-01-15T09:36:42;2.37;80.47
70676;DHT22;59069;52.242;20.900;2024-01-15T09:39:09;2.44;81.30
70676;DHT22;59069;52.242;20.900;2024-01-15T09:41:36;2.58;81.45
70676;DHT22;59069;52.242;20.900;2024-01-15T09:44:03;2.64;80.19
70676;DHT22;59069;52.242;20.900;2024-01-15T09:46:29;2.60;79.40
70676;DHT22;59069;52.242;20.900;2024-01-15T09:48:55;2.57;79.35
70676;DHT22;59069;52.242;20.900;2024-01-15T09:51:21;2.54;78.77
70676;DHT22;59069;52.242;20.900;2024-01-15T09:53:47;2.48;78.24
70676;DHT22;59069;52.242;20.900;2024-01-15T09:56:14;2.41;78.09
70676;DHT22;59069;52.242;20.900;2024-01-15T09:58:39;2.40;78.11
70676;DHT22;59069;52.242;20.900;2024-01-15T10:01:08;2.41;78.01
70676;DHT22;59069;52.242;20.900;2024-01-15T10:03:33;2.50;78.55
70676;DHT22;59069;52.242;20.900;2024-01-15T10:05:59;2.54;78.10
70676;DHT22;59069;52.242;20.900;2024-01-15T10:08:25;2.55;77.39
70676;DHT22;59069;52.242;20.900;2024-01-15T10:10:51;2.51;76.77
70676;DHT22;59069;52.242;20.900;2024-01-15T10:13:17;2.45;76.36
70676;DHT22;59069;52.242;20.900;2024-01-15T10:15:45;2.43;76.47
70676;DHT22;59069;52.242;20.900;2024-01-15T10:18:12;2.43;76.62
70676;DHT22;59069;52.242;20.900;2024-01-15T10:20:39;2.41;76.39
70676;DHT22;59069;52.242;20.900;2024-01-15T10:23:05;2.41;76.43
70676;DHT22;59069;52.242;20.900;2024-01-15T10:25:30;2.38;76.00
70676;DHT22;59069;52.242;20.900;2024-01-15T10:28:05;2.36;75.95
70676;DHT22;59069;52.242;20.900;2024-01-15T10:30:32;2.27;76.32
70676;DHT22;59069;52.242;20.900;2024-01-15T10:33:02;2.27;76.78
70676;DHT22;59069;52.242;20.900;2024-01-15T10:35:33;2.29;77.26
70676;DHT22;59069;52.242;20.900;2024-01-15T10:37:59;2.36;77.75
70676;DHT22;59069;52.242;20.900;2024-01-15T10:40:25;2.43;77.75
70676;DHT22;59069;52.242;20.900;2024-01-15T10:42:51;2.47;77.64
70676;DHT22;59069;52.242;20.900;2024-01-15T10:45:17;2.53;77.55
70676;DHT22;59069;52.242;20.900;2024-01-15T10:47:42;2.55;77.47
70676;DHT22;59069;52.242;20.900;2024-01-15T10:50:08;2.55;77.26
70676;DHT22;59069;52.242;20.900;2024-01-15T10:52:35;2.60;77.16
70676;DHT22;59069;52.242;20.900;2024-01-15T10:55:02;2.57;77.02
70676;DHT22;59069;52.242;20.900;2024-01-15T10:57:29;2.55;77.16
70676;DHT22;59069;52.242;20.900;2024-01-15T10:59:55;2.55;77.47
70676;DHT22;59069;52.242;20.900;2024-01-15T11:02:20;2.54;77.40
70676;DHT22;59069;52.242;20.900;2024-01-15T11:04:46;2.54;77.43
70676;DHT22;59069;52.242;20.900;2024-01-15T11:07:13;2.55;77.64
70676;DHT22;59069;52.242;20.900;2024-01-15T11:09:39;2.58;77.71
70676;DHT22;59069;52.242;20.900;2024-01-15T11:12:10;2.54;77.43
70676;DHT22;59069;52.242;20.900;2024-01-15T11:17:04;2.37;76.92
70676;DHT22;59069;52.242;20.900;2024-01-15T11:19:58;2.36;77.67
70676;DHT22;59069;52.242;20.900;2024-01-15T11:24:55;2.43;77.65
70676;DHT22;59069;52.242;20.900;2024-01-15T11:27:40;2.45;77.19
70676;DHT22;59069;52.242;20.900;2024-01-15T11:30:11;2.44;76.98
70676;DHT22;59069;52.242;20.900;2024-01-15T11:32:37;2.45;77.03
70676;DHT22;59069;52.242;20.900;2024-01-15T11:35:07;2.48;77.22
70676;DHT22;59069;52.242;20.900;2024-01-15T11:42:48;2.36;76.38
70676;DHT22;59069;52.242;20.900;2024-01-15T11:45:21;2.30;76.35
70676;DHT22;59069;52.242;20.900;2024-01-15T11:48:05;2.27;76.55
70676;DHT22;59069;52.242;20.900;2024-01-15T11:50:34;2.27;77.15
70676;DHT22;59069;52.242;20.900;2024-01-15T11:53:01;2.37;77.74
70676;DHT22;59069;52.242;20.900;2024-01-15T11:55:34;2.44;77.95
70676;DHT22;59069;52.242;20.900;2024-01-15T11:58:01;2.53;77.79
70676;DHT22;59069;52.242;20.900;2024-01-15T12:00:28;2.53;77.23
70676;DHT22;59069;52.242;20.900;2024-01-15T12:02:54;2.45;76.66
70676;DHT22;59069;52.242;20.900;2024-01-15T12:05:20;2.36;76.74
70676;DHT22;59069;52.242;20.900;2024-01-15T12:07:48;2.31;77.48
70676;DHT22;59069;52.242;20.900;2024-01-15T12:10:17;2.31;77.92
70676;DHT22;59069;52.242;20.900;2024-01-15T12:13:06;2.24;77.88
70676;DHT22;59069;52.242;20.900;2024-01-15T12:15:35;2.19;77.67
70676;DHT22;59069;52.242;20.900;2024-01-15T12:18:01;2.14;78.20
70676;DHT22;59069;52.242;20.900;2024-01-15T12:20:28;2.20;79.16
70676;DHT22;59069;52.242;20.900;2024-01-15T12:22:54;2.24;79.29
70676;DHT22;59069;52.242;20.900;2024-01-15T12:25:21;2.16;78.74
70676;DHT22;59069;52.242;20.900;2024-01-15T12:27:47;2.12;78.29
70676;DHT22;59069;52.242;20.900;2024-01-15T12:30:13;2.03;78.53
70676;DHT22;59069;52.242;20.900;2024-01-15T12:32:42;1.93;79.04
70676;DHT22;59069;52.242;20.900;2024-01-15T12:35:09;1.79;79.84
70676;DHT22;59069;52.242;20.900;2024-01-15T12:37:36;1.68;80.82
70676;DHT22;59069;52.242;20.900;2024-01-15T12:40:03;1.59;81.66
70676;DHT22;59069;52.242;20.900;2024-01-15T12:42:29;1.51;82.36
70676;DHT22;59069;52.242;20.900;2024-01-15T12:44:56;1.47;82.73
70676;DHT22;59069;52.242;20.900;2024-01-15T12:47:22;1.45;83.43
70676;DHT22;59069;52.242;20.900;2024-01-15T12:49:48;1.55;84.08
70676;DHT22;59069;52.242;20.900;2024-01-15T12:52:15;1.66;84.45
70676;DHT22;59069;52.242;20.900;2024-01-15T12:54:41;1.76;84.16
70676;DHT22;59069;52.242;20.900;2024-01-15T12:57:06;1.80;83.70
70676;DHT22;59069;52.242;20.900;2024-01-15T12:59:32;1.82;83.04
70676;DHT22;59069;52.242;20.900;2024-01-15T13:01:57;1.80;82.62
70676;DHT22;59069;52.242;20.900;2024-01-15T13:04:23;1.79;82.29
70676;DHT22;59069;52.242;20.900;2024-01-15T13:06:50;1.75;82.17
70676;DHT22;59069;52.242;20.900;2024-01-15T13:09:16;1.66;82.63
70676;DHT22;59069;52.242;20.900;2024-01-15T13:11:43;1.51;83.41
70676;DHT22;59069;52.242;20.900;2024-01-15T13:14:09;1.40;83.97
70676;DHT22;59069;52.242;20.900;2024-01-15T13:16:34;1.30;84.54
70676;DHT22;59069;52.242;20.900;2024-01-15T13:18:59;1.20;84.99
70676;DHT22;59069;52.242;20.900;2024-01-15T13:21:25;1.16;85.31
70676;DHT22;59069;52.242;20.900;2024-01-15T13:23:50;1.13;85.58
70676;DHT22;59069;52.242;20.900;2024-01-15T13:26:16;1.11;85.92
70676;DHT22;59069;52.242;20.900;2024-01-15T13:28:43;1.11;85.96
70676;DHT22;59069;52.242;20.900;2024-01-15T13:31:09;1.13;85.97
70676;DHT22;59069;52.242;20.900;2024-01-15T13:33:34;1.16;85.97
70676;DHT22;59069;52.242;20.900;2024-01-15T13:36:00;1.16;86.12
70676;DHT22;59069;52.242;20.900;2024-01-15T13:38:25;1.21;86.08
70676;DHT22;59069;52.242;20.900;2024-01-15T13:40:52;1.28;85.92
70676;DHT22;59069;52.242;20.900;2024-01-15T13:43:20;1.34;85.68
70676;DHT22;59069;52.242;20.900;2024-01-15T13:45:45;1.38;85.43
70676;DHT22;59069;52.242;20.900;2024-01-15T13:48:11;1.41;85.18
70676;DHT22;59069;52.242;20.900;2024-01-15T13:50:37;1.47;84.83
70676;DHT22;59069;52.242;20.900;2024-01-15T13:53:03;1.47;84.56
70676;DHT22;59069;52.242;20.900;2024-01-15T13:55:29;1.54;84.73
70676;DHT22;59069;52.242;20.900;2024-01-15T13:57:55;1.61;84.14
70676;DHT22;59069;52.242;20.900;2024-01-15T14:00:20;1.62;83.66
70676;DHT22;59069;52.242;20.900;2024-01-15T14:02:47;1.62;83.36
70676;DHT22;59069;52.242;20.900;2024-01-15T14:05:12;1.63;83.26
70676;DHT22;59069;52.242;20.900;2024-01-15T14:07:38;1.63;83.08
70676;DHT22;59069;52.242;20.900;2024-01-15T14:10:09;1.66;82.86
70676;DHT22;59069;52.242;20.900;2024-01-15T14:12:35;1.63;82.62
70676;DHT22;59069;52.242;20.900;2024-01-15T14:15:02;1.62;82.46
70676;DHT22;59069;52.242;20.900;2024-01-15T14:17:28;1.61;82.27
70676;DHT22;59069;52.242;20.900;2024-01-15T14:19:54;1.58;82.18
70676;DHT22;59069;52.242;20.900;2024-01-15T14:22:19;1.52;82.18
70676;DHT22;59069;52.242;20.900;2024-01-15T14:24:45;1.55;82.22
70676;DHT22;59069;52.242;20.900;2024-01-15T14:27:10;1.54;82.12
70676;DHT22;59069;52.242;20.900;2024-01-15T14:29:36;1.52;82.07
70676;DHT22;59069;52.242;20.900;2024-01-15T14:32:02;1.49;82.03
70676;DHT22;59069;52.242;20.900;2024-01-15T14:34:28;1.48;81.97
70676;DHT22;59069;52.242;20.900;2024-01-15T14:36:53;1.48;81.91
70676;DHT22;59069;52.242;20.900;2024-01-15T14:39:22;1.47;81.78
70676;DHT22;59069;52.242;20.900;2024-01-15T14:41:48;1.44;81.63
70676;DHT22;59069;52.242;20.900;2024-01-15T14:44:13;1.40;81.68
70676;DHT22;59069;52.242;20.900;2024-01-15T14:46:39;1.38;81.94
70676;DHT22;59069;52.242;20.900;2024-01-15T14:49:05;1.34;82.16
70676;DHT22;59069;52.242;20.900;2024-01-15T14:51:30;1.37;82.28
70676;DHT22;59069;52.242;20.900;2024-01-15T14:53:56;1.35;82.33
70676;DHT22;59069;52.242;20.900;2024-01-15T14:56:21;1.32;82.46
70676;DHT22;59069;52.242;20.900;2024-01-15T14:58:47;1.31;82.36
70676;DHT22;59069;52.242;20.900;2024-01-15T15:01:12;1.30;82.53
70676;DHT22;59069;52.242;20.900;2024-01-15T15:03:38;1.27;82.54
70676;DHT22;59069;52.242;20.900;2024-01-15T15:06:04;1.28;82.61
70676;DHT22;59069;52.242;20.900;2024-01-15T15:08:30;1.27;82.60
70676;DHT22;59069;52.242;20.900;2024-01-15T15:10:55;1.31;82.56
70676;DHT22;59069;52.242;20.900;2024-01-15T15:13:22;1.32;82.41
70676;DHT22;59069;52.242;20.900;2024-01-15T15:15:48;1.30;82.24
70676;DHT22;59069;52.242;20.900;2024-01-15T15:18:14;1.31;82.08
70676;DHT22;59069;52.242;20.900;2024-01-15T15:20:39;1.31;81.77
70676;DHT22;59069;52.242;20.900;2024-01-15T15:23:05;1.30;81.56
70676;DHT22;59069;52.242;20.900;2024-01-15T15:25:34;1.32;81.40
70676;DHT22;59069;52.242;20.900;2024-01-15T15:28:00;1.30;81.19
70676;DHT22;59069;52.242;20.900;2024-01-15T15:30:26;1.31;81.14
70676;DHT22;59069;52.242;20.900;2024-01-15T15:32:51;1.31;81.04